Archival Weather

South Haven Area Rgnl

South Haven, Michigan (KLWA)

Report from: Wednesday, December 6, 2023 7:15 PM EST
Current time: Saturday, February 24, 2024 11:13 AM EST

Current weather – Weather history – Daily summaries
Weather forecast

Temperature1.9°C (35.4°F)
Wind chill-1.3°C (29.7°F)
Dew point-2.0°C (28.4°F)
Winds 6 kts (3.1 m/s, 6.9 mph) South-Southwest (200°)
Visibility10 mi. (16.1 km)
Clouds Sky clear
Altimeter30.13 in.Hg (1020 mB)
Relative humidity75 %
Density altitude-1,753 ft. (-534 m)
Remarks Fully automated report
Automated weather observing station with precipitation discriminator
Flight conditions Visual Meteorological Conditions
Raw dataKLWA 070015Z AUTO 20006KT 10SM CLR 02/M02 A3013 RMK AO2 T00191020
An error has occurred. This application may no longer respond until reloaded. Reload 🗙